Terminal Aerodrome Forecast
Issued by NWS Grand Forks, ND

Home | Current Version | Previous Version | Text Only | Print | Product List | Glossary On
Versions: 1 2 3 4 5 6 7 8 9 10 11 12 13 14 15 16 17 18 19 20 21 22 23 24 25 26 27 28 29 30
000
FTUS43 KFGF 200500
TAFGFK
TAF
KGFK 200520Z 2006/2106 13006KT P6SM SKC
     FM201600 16015KT P6SM SCT150
     FM202100 16016G22KT P6SM BKN120
     FM210300 16014KT P6SM VCTS BKN050CB=

USA.gov is the U.S. government's official web portal to all federal, state and local government web resources and services.